Time;durP1;ratioP1;P1;durP2;ratioP2;P2;SDS_P1;SDS_P2;PMS_P1;PMS_P2;Temp;Humidity;BMP_temperature;BMP_pressure;BME280_temperature;BME280_humidity;BME280_pressure;Samples;Min_cycle;Max_cycle;Signal;HPM_P1;HPM_P2
2022/11/12 00:00:40;;;;;;;27.45;15.50;;;8.10;99.90;;;;;;6186913;23;20021;-77
2022/11/12 00:03:06;;;;;;;32.13;16.15;;;8.10;99.90;;;;;;6186546;23;20060;-77
2022/11/12 00:05:32;;;;;;;30.10;15.63;;;8.20;99.90;;;;;;6186512;23;20341;-77
2022/11/12 00:07:58;;;;;;;30.88;14.88;;;8.20;99.90;;;;;;6160115;23;20334;-77
2022/11/12 00:10:24;;;;;;;28.65;15.88;;;8.20;99.90;;;;;;6186854;23;20521;-77
2022/11/12 00:12:50;;;;;;;30.23;15.38;;;8.20;99.90;;;;;;6186751;23;20009;-77
2022/11/12 00:15:15;;;;;;;29.90;15.00;;;8.10;99.90;;;;;;6186945;23;20039;-77
2022/11/12 00:17:41;;;;;;;31.35;15.98;;;8.10;99.90;;;;;;6160112;23;20017;-77
2022/11/12 00:20:07;;;;;;;30.05;15.70;;;8.20;99.90;;;;;;6160529;23;20027;-77
2022/11/12 00:22:33;;;;;;;26.90;15.00;;;8.20;99.90;;;;;;6186420;23;20453;-77
2022/11/12 00:24:59;;;;;;;32.42;16.60;;;8.20;99.90;;;;;;6186709;23;20017;-77
2022/11/12 00:27:24;;;;;;;28.77;15.90;;;8.20;99.90;;;;;;6159988;23;20455;-77
2022/11/12 00:29:50;;;;;;;28.02;16.25;;;8.10;99.90;;;;;;6160069;23;20032;-77
2022/11/12 00:32:16;;;;;;;26.52;16.17;;;8.20;99.90;;;;;;6186314;23;20053;-77
2022/11/12 00:34:41;;;;;;;31.98;16.80;;;8.10;99.90;;;;;;6186202;23;20101;-77
2022/11/12 00:37:07;;;;;;;29.38;16.30;;;8.10;99.90;;;;;;6186567;23;20040;-77
2022/11/12 00:39:33;;;;;;;28.52;15.80;;;8.10;99.90;;;;;;6186574;23;20021;-77
2022/11/12 00:41:58;;;;;;;28.60;16.20;;;8.10;99.90;;;;;;6186178;23;20013;-77
2022/11/12 00:44:24;;;;;;;27.50;16.10;;;8.10;99.90;;;;;;6159855;23;20024;-77
2022/11/12 00:46:50;;;;;;;28.60;15.85;;;8.10;99.90;;;;;;6159761;23;20055;-77
2022/11/12 00:49:16;;;;;;;26.85;16.30;;;8.10;99.90;;;;;;6159866;23;20013;-77
2022/11/12 00:51:42;;;;;;;25.00;15.23;;;8.10;99.90;;;;;;6186518;23;20025;-77
2022/11/12 00:54:08;;;;;;;26.70;15.13;;;8.10;99.90;;;;;;6186053;23;20472;-77
2022/11/12 00:56:34;;;;;;;27.92;15.80;;;8.10;99.90;;;;;;6186117;23;20017;-77
2022/11/12 00:58:59;;;;;;;26.80;15.65;;;8.10;99.90;;;;;;6186431;23;20020;-77
2022/11/12 01:01:26;;;;;;;28.25;15.20;;;8.10;99.90;;;;;;6186135;23;20021;-77
2022/11/12 01:03:52;;;;;;;29.55;15.68;;;8.00;99.90;;;;;;6186366;23;20096;-77
2022/11/12 01:06:22;;;;;;;29.75;15.38;;;8.00;99.90;;;;;;6186418;23;20071;-77
2022/11/12 01:08:49;;;;;;;27.08;16.30;;;8.00;99.90;;;;;;6185783;23;20398;-77
2022/11/12 01:11:21;;;;;;;29.92;17.23;;;8.00;99.90;;;;;;6159686;23;20021;-77
2022/11/12 01:13:52;;;;;;;31.70;16.77;;;8.00;99.90;;;;;;6159272;23;20013;-77
2022/11/12 01:16:21;;;;;;;30.02;17.20;;;8.10;99.90;;;;;;6186140;23;20375;-77
2022/11/12 01:18:56;;;;;;;26.80;15.80;;;8.00;99.90;;;;;;6159671;23;20087;-77
2022/11/12 01:21:24;;;;;;;28.55;16.52;;;8.00;99.90;;;;;;6159742;23;20093;-77
2022/11/12 01:23:50;;;;;;;27.90;16.73;;;8.00;99.90;;;;;;6159604;23;20441;-77
2022/11/12 01:26:19;;;;;;;27.58;16.38;;;8.00;99.90;;;;;;6159470;23;20440;-77
2022/11/12 01:28:45;;;;;;;28.88;15.40;;;7.90;99.90;;;;;;6185933;23;20403;-77
2022/11/12 01:31:21;;;;;;;28.00;15.15;;;7.90;99.90;;;;;;6185911;23;20048;-77
2022/11/12 01:33:49;;;;;;;27.83;16.27;;;7.90;99.90;;;;;;6186178;23;20385;-77
2022/11/12 01:36:17;;;;;;;29.55;15.23;;;7.80;99.90;;;;;;6186233;23;20052;-77
2022/11/12 01:38:44;;;;;;;27.75;15.55;;;7.80;99.90;;;;;;6185906;23;20469;-77
2022/11/12 01:41:17;;;;;;;24.15;15.77;;;7.80;99.90;;;;;;6159556;23;20028;-77
2022/11/12 01:43:43;;;;;;;29.02;16.63;;;7.80;99.90;;;;;;6186179;23;20021;-77
2022/11/12 01:46:28;;;;;;;25.67;15.35;;;7.80;99.90;;;;;;6186183;23;20013;-77
2022/11/12 01:49:08;;;;;;;29.80;15.32;;;7.70;99.90;;;;;;6159564;23;20025;-77
2022/11/12 01:51:39;;;;;;;31.25;16.98;;;7.70;99.90;;;;;;6185921;23;20353;-77
2022/11/12 01:54:08;;;;;;;26.40;15.55;;;7.70;99.90;;;;;;6186105;23;20017;-77
2022/11/12 01:56:35;;;;;;;25.98;15.98;;;7.70;99.90;;;;;;6186198;23;20017;-77
2022/11/12 01:59:10;;;;;;;29.17;16.92;;;7.70;99.90;;;;;;6159502;23;20021;-78
2022/11/12 02:01:37;;;;;;;28.25;17.30;;;7.60;99.90;;;;;;6159434;23;20349;-77
2022/11/12 02:04:03;;;;;;;29.92;16.85;;;7.60;99.90;;;;;;6185716;23;20020;-77
2022/11/12 02:06:30;;;;;;;29.45;16.10;;;7.60;99.90;;;;;;6185716;23;20532;-77
2022/11/12 02:08:56;;;;;;;27.85;16.10;;;7.50;99.90;;;;;;6186080;23;20017;-77
2022/11/12 02:11:22;;;;;;;27.70;15.25;;;7.50;99.90;;;;;;6186035;23;20350;-77
2022/11/12 02:13:57;;;;;;;28.20;17.15;;;7.50;99.90;;;;;;6185674;23;20013;-77
2022/11/12 02:16:39;;;;;;;28.75;16.75;;;7.50;99.90;;;;;;6159358;23;20033;-77
2022/11/12 02:19:08;;;;;;;27.13;16.83;;;7.50;99.90;;;;;;6186129;23;20021;-77
2022/11/12 02:21:34;;;;;;;26.10;17.27;;;7.50;99.90;;;;;;6187974;23;20024;-77
2022/11/12 02:24:05;;;;;;;26.40;16.23;;;7.40;99.90;;;;;;6187576;23;20017;-77
2022/11/12 02:26:38;;;;;;;25.83;16.08;;;7.40;99.90;;;;;;6187872;23;20013;-77
2022/11/12 02:29:03;;;;;;;27.45;16.52;;;7.40;99.90;;;;;;6161262;23;20353;-77
2022/11/12 02:31:29;;;;;;;31.83;17.17;;;7.30;99.90;;;;;;6187756;23;20021;-77
2022/11/12 02:33:55;;;;;;;25.33;15.65;;;7.30;99.90;;;;;;6160999;23;20024;-77
2022/11/12 02:36:21;;;;;;;25.15;15.32;;;7.40;99.90;;;;;;6160995;23;20319;-77
2022/11/12 02:38:46;;;;;;;24.38;15.98;;;7.30;99.90;;;;;;6187720;23;20021;-77
2022/11/12 02:41:12;;;;;;;26.63;16.42;;;7.30;99.90;;;;;;6161001;23;20084;-77
2022/11/12 02:43:38;;;;;;;29.20;16.35;;;7.30;99.90;;;;;;6161006;23;20025;-77
2022/11/12 02:46:05;;;;;;;28.70;17.00;;;7.20;99.90;;;;;;6187282;23;20071;-77
2022/11/12 02:48:31;;;;;;;27.00;16.85;;;7.30;99.90;;;;;;6160979;23;20024;-77
2022/11/12 02:50:56;;;;;;;27.77;16.73;;;7.20;99.90;;;;;;6160906;23;20017;-77
2022/11/12 02:53:22;;;;;;;25.02;16.15;;;7.20;99.90;;;;;;6160853;23;20540;-77
2022/11/12 02:55:48;;;;;;;27.73;16.40;;;7.20;99.90;;;;;;6187207;23;20095;-77
2022/11/12 02:58:13;;;;;;;27.80;16.38;;;7.20;99.90;;;;;;6160900;23;20021;-77
2022/11/12 03:00:39;;;;;;;23.70;16.13;;;7.20;99.90;;;;;;6160931;23;20017;-77
2022/11/12 03:03:05;;;;;;;28.67;17.88;;;7.20;99.90;;;;;;6160871;23;20024;-77
2022/11/12 03:05:33;;;;;;;31.35;17.48;;;7.10;99.90;;;;;;6160903;23;20017;-77
2022/11/12 03:08:04;;;;;;;29.58;17.13;;;7.20;99.90;;;;;;6187462;23;20021;-77
2022/11/12 03:10:30;;;;;;;26.83;16.55;;;7.20;99.90;;;;;;6187468;23;20139;-77
2022/11/12 03:12:58;;;;;;;29.70;16.98;;;7.10;99.90;;;;;;6187399;23;20017;-77
2022/11/12 03:15:24;;;;;;;28.08;17.27;;;7.10;99.90;;;;;;6186711;23;20132;-77
2022/11/12 03:17:49;;;;;;;28.65;18.15;;;7.10;99.90;;;;;;6187333;23;20047;-77
2022/11/12 03:20:15;;;;;;;27.30;17.70;;;7.10;99.90;;;;;;6187346;23;20016;-77
2022/11/12 03:22:41;;;;;;;35.95;18.55;;;7.00;99.90;;;;;;6187278;23;20464;-77
2022/11/12 03:25:08;;;;;;;27.52;17.48;;;7.00;99.90;;;;;;6187296;23;20075;-77
2022/11/12 03:27:34;;;;;;;36.38;19.08;;;7.10;99.90;;;;;;6187252;23;20012;-77
2022/11/12 03:29:59;;;;;;;34.28;19.67;;;7.00;99.90;;;;;;6186722;23;20032;-77
2022/11/12 03:32:25;;;;;;;28.60;19.63;;;7.00;99.90;;;;;;6186824;23;20013;-77
2022/11/12 03:34:51;;;;;;;35.63;19.60;;;7.00;99.90;;;;;;6160293;23;20433;-78
2022/11/12 03:37:17;;;;;;;33.28;19.10;;;7.00;99.90;;;;;;6160532;23;20017;-77
2022/11/12 03:39:42;;;;;;;31.83;20.38;;;7.10;99.90;;;;;;6160557;23;20048;-77
2022/11/12 03:42:08;;;;;;;33.80;20.10;;;7.10;99.90;;;;;;6160379;23;20147;-77
2022/11/12 03:44:34;;;;;;;34.47;21.15;;;7.20;99.90;;;;;;6160481;23;20021;-77
2022/11/12 03:47:00;;;;;;;33.17;20.92;;;7.30;99.90;;;;;;6160464;23;20067;-77
2022/11/12 03:49:25;;;;;;;37.45;20.80;;;7.30;99.90;;;;;;6186919;23;20091;-77
2022/11/12 03:51:51;;;;;;;41.08;20.33;;;7.30;99.90;;;;;;6186678;23;20462;-77
2022/11/12 03:54:17;;;;;;;36.60;21.42;;;7.40;99.90;;;;;;6186872;23;20020;-77
2022/11/12 03:56:42;;;;;;;38.80;21.15;;;7.40;99.90;;;;;;6160349;23;20024;-77
2022/11/12 03:59:08;;;;;;;46.10;23.38;;;7.40;99.90;;;;;;6160331;23;20017;-77
2022/11/12 04:01:34;;;;;;;44.05;22.05;;;7.50;99.90;;;;;;6186947;23;20013;-77
2022/11/12 04:03:59;;;;;;;54.08;22.50;;;7.60;99.90;;;;;;6186792;23;20311;-77
2022/11/12 04:09:09;;;;;;;65.93;24.58;;;7.60;99.90;;;;;;6186928;23;20074;-77
2022/11/12 04:11:35;;;;;;;64.57;25.27;;;7.70;99.90;;;;;;6186528;23;20021;-77
2022/11/12 04:14:00;;;;;;;74.60;23.80;;;7.80;99.90;;;;;;6186142;23;20388;-77
2022/11/12 04:22:09;;;;;;;55.63;23.25;;;7.80;99.90;;;;;;6082081;23;20487;-77
2022/11/12 04:27:29;;;;;;;59.80;23.80;;;7.90;99.90;;;;;;6186736;23;20140;-77
2022/11/12 04:32:48;;;;;;;60.95;24.88;;;7.90;99.90;;;;;;6186696;23;20017;-77
2022/11/12 04:35:14;;;;;;;95.68;27.58;;;7.90;99.90;;;;;;6186547;23;20028;-77
2022/11/12 04:37:43;;;;;;;90.00;26.10;;;7.90;99.90;;;;;;6186198;23;20010;-77
2022/11/12 04:46:02;;;;;;;74.00;26.50;;;8.00;99.90;;;;;;6186621;23;20059;-77
2022/11/12 04:48:27;;;;;;;99.72;27.70;;;8.00;99.90;;;;;;6159773;23;20013;-77
2022/11/12 04:50:58;;;;;;;95.03;26.27;;;8.00;99.90;;;;;;6159883;23;20151;-77
2022/11/12 04:53:24;;;;;;;97.72;28.05;;;8.00;99.90;;;;;;6186454;23;20039;-77
2022/11/12 04:55:51;;;;;;;100.97;27.90;;;8.00;99.90;;;;;;6159760;23;20437;-77
2022/11/12 04:58:17;;;;;;;97.03;27.50;;;8.00;99.90;;;;;;6159794;23;20021;-77
2022/11/12 05:00:42;;;;;;;86.85;26.63;;;8.10;99.90;;;;;;6159692;23;20059;-77
2022/11/12 05:03:08;;;;;;;75.53;26.25;;;8.10;99.90;;;;;;6186514;23;20017;-77
2022/11/12 05:05:34;;;;;;;98.40;26.48;;;8.10;99.90;;;;;;6186380;23;20028;-77
2022/11/12 05:08:01;;;;;;;98.60;26.83;;;8.10;99.90;;;;;;6186412;23;20319;-77
2022/11/12 05:10:26;;;;;;;93.95;26.08;;;8.20;99.90;;;;;;6186130;23;20021;-77
2022/11/12 05:12:52;;;;;;;145.98;30.35;;;8.20;99.90;;;;;;6159639;23;20027;-77
2022/11/12 05:15:18;;;;;;;183.32;29.85;;;8.20;99.90;;;;;;6185732;23;20017;-77
2022/11/12 05:17:44;;;;;;;158.02;29.55;;;8.20;99.90;;;;;;6159566;23;20035;-77
2022/11/12 05:20:11;;;;;;;113.80;26.35;;;8.20;99.90;;;;;;6185965;23;20017;-77
2022/11/12 05:22:36;;;;;;;111.72;26.85;;;8.20;99.90;;;;;;6186293;23;20009;-77
2022/11/12 05:25:03;;;;;;;117.15;28.33;;;8.20;99.90;;;;;;6159657;23;20140;-77
2022/11/12 05:27:28;;;;;;;76.55;25.83;;;8.20;99.90;;;;;;6185955;23;20021;-77
2022/11/12 05:29:54;;;;;;;120.75;27.63;;;8.20;99.90;;;;;;6159558;23;20017;-77
2022/11/12 05:32:20;;;;;;;140.52;28.17;;;8.20;99.90;;;;;;6186264;23;20068;-77
2022/11/12 05:34:45;;;;;;;102.65;27.52;;;8.20;99.90;;;;;;6159476;23;20337;-77
2022/11/12 05:37:12;;;;;;;115.97;27.40;;;8.20;99.90;;;;;;6186175;23;20021;-77
2022/11/12 05:39:38;;;;;;;100.75;25.58;;;8.20;99.90;;;;;;6159633;23;20025;-77
2022/11/12 05:42:04;;;;;;;103.35;26.73;;;8.20;99.90;;;;;;6159543;23;20173;-77
2022/11/12 05:44:29;;;;;;;77.78;23.90;;;8.20;99.90;;;;;;6185728;23;20025;-77
2022/11/12 05:46:55;;;;;;;97.72;26.48;;;8.20;99.90;;;;;;6159482;23;20449;-77
2022/11/12 05:49:20;;;;;;;72.95;23.40;;;8.20;99.90;;;;;;6159599;23;20060;-77
2022/11/12 05:51:46;;;;;;;112.22;21.38;;;8.20;99.90;;;;;;6186133;23;20045;-77
2022/11/12 05:54:12;;;;;;;67.88;21.80;;;8.20;99.90;;;;;;6186999;23;20051;-77
2022/11/12 05:56:38;;;;;;;78.53;21.33;;;8.20;99.90;;;;;;6188125;23;20013;-77
2022/11/12 05:59:06;;;;;;;64.50;21.88;;;8.20;99.90;;;;;;6161372;23;20357;-77
2022/11/12 06:01:34;;;;;;;78.47;20.98;;;8.20;99.90;;;;;;6161451;23;20092;-77
2022/11/12 06:04:00;;;;;;;105.07;23.40;;;8.20;99.90;;;;;;6161354;23;20017;-77
2022/11/12 06:06:26;;;;;;;86.32;23.30;;;8.10;99.90;;;;;;6188083;23;20013;-77
2022/11/12 06:08:51;;;;;;;56.38;22.05;;;8.10;99.90;;;;;;6187731;23;20052;-77
2022/11/12 06:11:17;;;;;;;72.60;20.65;;;8.10;99.90;;;;;;6161335;23;20017;-77
2022/11/12 06:13:43;;;;;;;103.70;22.13;;;8.10;99.90;;;;;;6187350;23;20032;-77
2022/11/12 06:16:08;;;;;;;77.28;20.65;;;8.10;99.90;;;;;;6187878;23;20021;-77
2022/11/12 06:18:34;;;;;;;71.85;21.00;;;8.10;99.90;;;;;;6161227;23;20319;-77
2022/11/12 06:21:19;;;;;;;66.25;18.92;;;8.10;99.90;;;;;;6161263;23;20063;-77
2022/11/12 06:23:46;;;;;;;81.22;22.17;;;8.10;99.90;;;;;;6187562;23;20450;-77
2022/11/12 06:26:11;;;;;;;75.68;20.88;;;8.10;99.90;;;;;;6161071;23;20088;-77
2022/11/12 06:28:37;;;;;;;76.65;20.95;;;8.10;99.90;;;;;;6187809;23;20040;-77
2022/11/12 06:31:03;;;;;;;68.95;20.63;;;8.10;99.90;;;;;;6161163;23;20025;-77
2022/11/12 06:33:28;;;;;;;81.70;21.20;;;8.10;99.90;;;;;;6161150;23;20017;-77
2022/11/12 06:36:02;;;;;;;73.55;19.27;;;8.10;99.90;;;;;;6161159;23;20044;-77
2022/11/12 06:38:29;;;;;;;66.03;17.88;;;8.10;99.90;;;;;;6187375;23;20326;-77
2022/11/12 06:40:55;;;;;;;82.97;18.58;;;8.00;99.90;;;;;;6161015;23;20314;-77
2022/11/12 06:43:20;;;;;;;91.72;18.65;;;8.00;99.90;;;;;;6187722;23;20471;-77
2022/11/12 06:45:46;;;;;;;73.97;18.27;;;8.00;99.90;;;;;;6187462;23;20385;-77
2022/11/12 06:48:12;;;;;;;59.90;17.00;;;8.00;99.90;;;;;;6187640;23;20381;-78
2022/11/12 06:50:37;;;;;;;52.53;16.08;;;8.00;99.90;;;;;;6160993;23;20021;-78
2022/11/12 06:53:03;;;;;;;53.13;15.88;;;8.10;99.90;;;;;;6160910;23;20031;-77
2022/11/12 06:55:29;;;;;;;86.07;16.98;;;8.10;99.90;;;;;;6186842;23;20410;-78
2022/11/12 06:57:54;;;;;;;37.28;15.25;;;8.10;99.90;;;;;;6160541;23;20017;-77
2022/11/12 07:00:20;;;;;;;71.72;16.92;;;8.00;99.90;;;;;;6160488;23;20021;-77
2022/11/12 07:02:45;;;;;;;53.95;15.48;;;8.10;99.90;;;;;;6186354;23;20438;-78
2022/11/12 07:05:11;;;;;;;60.70;17.33;;;8.00;99.90;;;;;;6158604;23;20048;-77
2022/11/12 07:07:37;;;;;;;43.67;16.98;;;8.10;99.90;;;;;;6160447;23;20084;-78
2022/11/12 07:10:03;;;;;;;69.88;18.25;;;8.00;99.90;;;;;;6187345;23;20091;-78
2022/11/12 07:12:29;;;;;;;58.33;17.77;;;8.10;99.90;;;;;;6160725;23;20017;-78
2022/11/12 07:14:55;;;;;;;95.07;18.85;;;8.00;99.90;;;;;;6186780;23;20021;-77
2022/11/12 07:17:21;;;;;;;72.88;17.75;;;8.00;99.90;;;;;;6160571;23;20013;-78
2022/11/12 07:19:46;;;;;;;57.80;17.10;;;7.90;99.90;;;;;;6160556;23;20013;-79
2022/11/12 07:22:12;;;;;;;60.17;16.52;;;8.00;99.90;;;;;;6160571;23;20017;-77
2022/11/12 07:24:37;;;;;;;67.22;19.00;;;8.00;99.90;;;;;;6160500;23;20088;-78
2022/11/12 07:27:04;;;;;;;59.88;17.95;;;8.00;99.90;;;;;;6187216;23;20024;-77
2022/11/12 07:29:30;;;;;;;105.80;21.02;;;8.00;99.90;;;;;;6186998;23;20024;-78
2022/11/12 07:31:55;;;;;;;63.75;19.48;;;8.00;99.90;;;;;;6186689;23;20111;-77
2022/11/12 07:34:21;;;;;;;96.13;20.35;;;8.00;99.90;;;;;;6160237;23;20449;-77
2022/11/12 07:36:50;;;;;;;94.50;19.58;;;7.90;99.90;;;;;;6160368;23;20088;-78
2022/11/12 07:39:16;;;;;;;151.07;21.83;;;8.00;99.90;;;;;;6158379;23;20024;-77
2022/11/12 07:41:42;;;;;;;186.27;24.17;;;7.90;99.90;;;;;;6185758;23;20334;-77
2022/11/12 07:44:08;;;;;;;78.55;20.90;;;7.90;99.90;;;;;;6186338;23;20511;-77
2022/11/12 07:46:33;;;;;;;53.83;20.27;;;7.90;99.90;;;;;;6160050;23;20031;-77
2022/11/12 07:48:59;;;;;;;62.90;20.13;;;8.00;99.90;;;;;;6186395;23;20025;-77
2022/11/12 07:51:27;;;;;;;74.45;21.85;;;8.00;99.90;;;;;;6160087;23;20044;-77
2022/11/12 07:53:54;;;;;;;129.55;23.05;;;8.00;99.90;;;;;;6186503;23;20083;-76
2022/11/12 07:56:21;;;;;;;58.08;22.05;;;8.00;99.90;;;;;;6159978;23;20021;-77
2022/11/12 07:58:49;;;;;;;112.18;24.42;;;8.10;99.90;;;;;;6160085;23;20068;-77
2022/11/12 08:01:20;;;;;;;111.65;24.98;;;8.10;99.90;;;;;;6159738;23;20025;-77
2022/11/12 08:03:46;;;;;;;94.70;24.38;;;8.10;99.90;;;;;;6186317;23;20083;-77
2022/11/12 08:06:11;;;;;;;109.82;25.35;;;8.00;99.90;;;;;;6159786;23;20017;-78
2022/11/12 08:08:37;;;;;;;103.47;24.90;;;8.10;99.90;;;;;;6159918;23;20088;-77
2022/11/12 08:11:03;;;;;;;91.97;24.90;;;8.00;99.90;;;;;;6159858;23;20449;-77
2022/11/12 08:13:28;;;;;;;113.05;26.33;;;8.00;99.90;;;;;;6159595;23;20115;-77
2022/11/12 08:15:57;;;;;;;82.93;25.50;;;8.00;99.90;;;;;;6159748;23;20025;-77
2022/11/12 08:18:23;;;;;;;72.20;25.77;;;8.10;99.90;;;;;;6185664;23;20349;-77
2022/11/12 08:20:49;;;;;;;129.77;27.45;;;8.10;99.90;;;;;;6185970;23;20445;-77
2022/11/12 08:23:15;;;;;;;110.85;25.80;;;8.10;99.90;;;;;;6186365;23;20017;-77
2022/11/12 08:25:40;;;;;;;69.95;25.45;;;8.10;99.90;;;;;;6186361;23;20009;-77
2022/11/12 08:28:06;;;;;;;73.20;25.42;;;8.10;99.90;;;;;;6186368;23;20021;-77
2022/11/12 08:30:32;;;;;;;158.90;28.80;;;8.10;99.90;;;;;;6185818;23;20017;-77
2022/11/12 08:33:03;;;;;;;66.07;24.63;;;8.10;99.90;;;;;;6159208;23;20072;-77
2022/11/12 08:35:30;;;;;;;120.47;27.45;;;8.20;99.90;;;;;;6185796;23;20476;-78
2022/11/12 08:38:06;;;;;;;96.45;26.63;;;8.10;99.90;;;;;;6186264;23;20079;-78
2022/11/12 08:40:32;;;;;;;99.20;28.20;;;8.20;99.90;;;;;;6159642;23;20477;-77
2022/11/12 08:43:01;;;;;;;105.82;28.27;;;8.20;99.90;;;;;;6159569;23;20017;-77
2022/11/12 08:45:30;;;;;;;157.50;33.10;;;8.20;99.90;;;;;;6186183;23;20076;-78
2022/11/12 08:48:01;;;;;;;194.55;43.28;;;8.20;99.90;;;;;;6159988;23;20017;-78
2022/11/12 08:50:27;;;;;;;245.93;49.25;;;8.10;99.90;;;;;;6185740;23;20075;-78
2022/11/12 08:52:57;;;;;;;351.73;61.15;;;8.10;99.90;;;;;;6185912;23;20013;-78
2022/11/12 08:55:23;;;;;;;216.63;54.28;;;8.10;99.90;;;;;;6186194;23;20052;-78
2022/11/12 08:57:49;;;;;;;199.75;55.58;;;8.20;99.90;;;;;;6159210;23;20017;-78
2022/11/12 09:00:15;;;;;;;309.02;66.53;;;8.20;99.90;;;;;;6159176;23;20020;-78
2022/11/12 09:02:40;;;;;;;285.95;64.50;;;8.20;99.90;;;;;;6159299;23;20449;-77
2022/11/12 09:05:06;;;;;;;279.60;48.00;;;8.20;99.90;;;;;;6186062;23;20019;-77
2022/11/12 09:07:32;;;;;;;152.95;39.05;;;8.10;99.90;;;;;;6185987;23;20020;-78
2022/11/12 09:09:57;;;;;;;134.52;36.97;;;8.10;99.90;;;;;;6186066;23;20017;-78
2022/11/12 09:12:23;;;;;;;122.25;33.25;;;8.10;99.90;;;;;;6159140;23;20346;-77
2022/11/12 09:14:49;;;;;;;133.13;37.38;;;8.20;99.90;;;;;;6185218;23;20024;-77
2022/11/12 09:17:15;;;;;;;138.75;36.75;;;8.20;99.90;;;;;;6158903;23;20027;-78
2022/11/12 09:19:41;;;;;;;112.20;29.23;;;8.20;99.90;;;;;;6185980;23;20019;-77
2022/11/12 09:22:06;;;;;;;196.60;35.28;;;8.10;99.90;;;;;;6185725;23;20095;-78
2022/11/12 09:24:32;;;;;;;171.63;34.75;;;8.10;99.90;;;;;;6185462;23;20040;-78
2022/11/12 09:26:58;;;;;;;163.57;36.33;;;8.10;99.90;;;;;;6185575;23;20028;-78
2022/11/12 09:29:23;;;;;;;87.47;27.40;;;8.10;99.90;;;;;;6185438;23;20024;-77
2022/11/12 09:31:49;;;;;;;84.78;27.35;;;8.00;99.90;;;;;;6185801;23;20080;-77
2022/11/12 09:34:15;;;;;;;84.10;27.38;;;8.00;99.90;;;;;;6185521;23;20017;-77
2022/11/12 09:36:41;;;;;;;105.97;32.15;;;8.00;99.90;;;;;;6185121;23;20118;-77
2022/11/12 09:39:07;;;;;;;118.93;29.50;;;8.00;99.90;;;;;;6185616;23;20451;-77
2022/11/12 09:41:37;;;;;;;77.20;26.00;;;8.00;99.90;;;;;;6185773;23;20057;-77
2022/11/12 09:44:12;;;;;;;96.28;29.88;;;8.00;99.90;;;;;;6159184;23;20091;-77
2022/11/12 09:46:50;;;;;;;100.03;28.65;;;8.00;99.90;;;;;;6185505;23;20342;-77
2022/11/12 09:49:31;;;;;;;72.95;29.13;;;8.00;99.90;;;;;;6185868;23;20044;-77
2022/11/12 09:52:10;;;;;;;115.15;27.65;;;8.10;99.90;;;;;;6159307;23;20023;-77
2022/11/12 09:54:36;;;;;;;65.45;28.35;;;8.00;99.90;;;;;;6185539;23;20132;-77
2022/11/12 09:57:01;;;;;;;75.43;26.80;;;8.10;99.90;;;;;;6185617;23;20025;-78
2022/11/12 09:59:33;;;;;;;100.72;34.45;;;8.10;99.90;;;;;;6157877;23;20039;-77
2022/11/12 10:02:36;;;;;;;113.28;33.22;;;8.10;99.90;;;;;;6158704;23;20446;-77
2022/11/12 10:05:20;;;;;;;130.18;35.97;;;8.10;99.90;;;;;;6158903;23;20021;-77
2022/11/12 10:07:58;;;;;;;91.22;33.40;;;8.00;99.90;;;;;;6159123;23;20100;-78
2022/11/12 10:10:38;;;;;;;72.22;28.35;;;8.00;99.90;;;;;;6185802;23;20009;-78
2022/11/12 10:13:24;;;;;;;85.50;37.17;;;8.00;99.90;;;;;;6185692;23;20017;-77
2022/11/12 10:19:15;;;;;;;65.43;25.73;;;7.90;99.90;;;;;;6185779;23;20084;-78
2022/11/12 10:21:43;;;;;;;62.67;25.70;;;7.90;99.90;;;;;;6185237;23;20028;-77
2022/11/12 10:24:10;;;;;;;61.50;25.73;;;7.90;99.90;;;;;;6158981;23;20032;-77
2022/11/12 10:26:37;;;;;;;69.47;26.88;;;7.80;99.90;;;;;;6185713;23;20052;-77
2022/11/12 10:29:17;;;;;;;69.75;26.55;;;7.80;99.90;;;;;;6185773;23;20151;-77
2022/11/12 10:31:42;;;;;;;69.65;28.00;;;7.90;99.90;;;;;;6185334;23;20461;-78
2022/11/12 10:34:18;;;;;;;69.80;26.15;;;7.90;99.90;;;;;;6185477;23;20072;-77
2022/11/12 10:36:53;;;;;;;66.95;27.23;;;8.00;99.90;;;;;;6158983;23;20445;-78
2022/11/12 10:39:40;;;;;;;73.32;27.98;;;8.00;99.90;;;;;;6185605;23;20013;-78
2022/11/12 10:42:12;;;;;;;73.43;28.25;;;8.00;99.90;;;;;;6187095;23;20024;-77
2022/11/12 10:44:39;;;;;;;67.90;27.60;;;8.10;99.90;;;;;;6187315;23;20017;-77
2022/11/12 10:47:23;;;;;;;72.50;28.27;;;8.20;99.90;;;;;;6187266;23;20091;-77
2022/11/12 10:50:07;;;;;;;87.60;29.85;;;8.20;99.90;;;;;;6187329;23;20021;-77
2022/11/12 10:52:34;;;;;;;71.28;27.73;;;8.20;99.90;;;;;;6187310;23;20013;-77
2022/11/12 10:55:14;;;;;;;80.50;30.33;;;8.20;99.90;;;;;;6187099;23;20067;-77
2022/11/12 10:57:40;;;;;;;80.93;30.92;;;8.30;99.90;;;;;;6186809;23;20310;-77
2022/11/12 11:00:12;;;;;;;79.28;28.67;;;8.30;99.90;;;;;;6186654;23;20066;-77
2022/11/12 11:02:51;;;;;;;88.78;32.75;;;8.30;99.90;;;;;;6186728;23;20032;-77
2022/11/12 11:06:07;;;;;;;93.10;32.17;;;8.30;99.90;;;;;;6187189;23;20092;-76
2022/11/12 11:08:47;;;;;;;94.28;32.80;;;8.40;99.90;;;;;;6186933;23;20024;-76
2022/11/12 11:11:18;;;;;;;99.13;33.33;;;8.40;99.90;;;;;;6160237;23;20071;-76
2022/11/12 11:13:46;;;;;;;103.95;34.38;;;8.40;99.90;;;;;;6186403;23;20082;-77
2022/11/12 11:16:21;;;;;;;103.80;34.25;;;8.50;99.90;;;;;;6160075;23;20434;-77
2022/11/12 11:18:56;;;;;;;106.55;35.13;;;8.50;99.90;;;;;;6160389;23;20099;-77
2022/11/12 11:21:31;;;;;;;90.93;34.28;;;8.50;99.90;;;;;;6160424;23;20100;-77
2022/11/12 11:24:21;;;;;;;105.50;34.58;;;8.60;99.90;;;;;;6160365;23;20017;-77
2022/11/12 11:27:21;;;;;;;103.25;35.05;;;8.60;99.90;;;;;;6160189;23;20569;-77
2022/11/12 11:30:01;;;;;;;112.45;36.67;;;8.70;99.90;;;;;;6160265;23;20048;-77
2022/11/12 11:33:05;;;;;;;106.53;37.30;;;8.70;99.90;;;;;;6159984;23;20100;-77
2022/11/12 11:35:42;;;;;;;121.80;36.33;;;8.70;99.90;;;;;;6186481;23;20024;-76
2022/11/12 11:38:34;;;;;;;110.60;36.25;;;8.70;99.90;;;;;;6186805;23;20072;-77
2022/11/12 11:41:21;;;;;;;100.17;34.60;;;8.70;99.90;;;;;;6186718;23;20449;-77
2022/11/12 11:44:04;;;;;;;110.72;39.38;;;8.80;99.90;;;;;;6160322;23;20009;-79
2022/11/12 11:46:56;;;;;;;111.18;38.40;;;8.80;99.90;;;;;;6186933;23;20071;-77
2022/11/12 11:49:53;;;;;;;103.20;37.97;;;8.80;99.90;;;;;;6186694;23;20520;-77
2022/11/12 11:52:54;;;;;;;91.82;35.78;;;8.80;99.90;;;;;;6186806;23;20020;-78
2022/11/12 11:55:47;;;;;;;99.20;36.55;;;8.80;99.90;;;;;;6160132;23;20025;-77
2022/11/12 11:58:34;;;;;;;97.85;36.75;;;8.70;99.90;;;;;;6186808;23;20013;-78
2022/11/12 12:01:27;;;;;;;100.00;36.00;;;8.70;99.90;;;;;;6186841;23;20025;-77
2022/11/12 12:04:11;;;;;;;81.85;33.58;;;8.70;99.90;;;;;;6186912;23;20013;-77
2022/11/12 12:07:01;;;;;;;102.18;38.28;;;8.70;99.90;;;;;;6186477;23;20393;-77
2022/11/12 12:09:43;;;;;;;94.93;35.10;;;8.80;99.90;;;;;;6186482;23;20014;-77
2022/11/12 12:12:22;;;;;;;96.82;36.40;;;8.70;99.90;;;;;;6186745;23;20009;-77
2022/11/12 12:15:22;;;;;;;91.50;34.80;;;8.70;99.90;;;;;;6186106;23;20053;-77
2022/11/12 12:18:07;;;;;;;93.03;36.45;;;8.70;99.90;;;;;;6186764;23;20009;-77
2022/11/12 12:21:00;;;;;;;100.43;37.30;;;8.70;99.90;;;;;;6186660;23;20028;-77
2022/11/12 12:23:49;;;;;;;99.55;39.03;;;8.70;99.90;;;;;;6186679;23;20055;-77
2022/11/12 12:26:29;;;;;;;90.38;38.55;;;8.80;99.90;;;;;;6166957;23;20024;-77
2022/11/12 12:29:24;;;;;;;98.88;39.38;;;8.80;99.90;;;;;;6186524;23;20032;-77
2022/11/12 12:32:13;;;;;;;96.15;38.45;;;8.90;99.90;;;;;;6159955;23;20044;-77
2022/11/12 12:34:46;;;;;;;97.25;38.67;;;8.90;99.90;;;;;;6159755;23;20024;-77
2022/11/12 12:37:19;;;;;;;100.18;37.42;;;8.90;99.90;;;;;;6186120;23;20021;-77
2022/11/12 12:40:03;;;;;;;90.68;39.13;;;8.80;99.90;;;;;;6157059;23;20024;-77
2022/11/12 12:42:38;;;;;;;88.63;37.47;;;8.90;99.90;;;;;;6183883;23;20024;-77
2022/11/12 12:45:40;;;;;;;102.57;42.58;;;8.80;99.90;;;;;;6184998;23;20084;-77
2022/11/12 12:48:29;;;;;;;98.05;39.72;;;8.80;99.90;;;;;;6138502;23;20021;-77
2022/11/12 12:50:55;;;;;;;100.88;39.60;;;8.80;99.90;;;;;;6158494;23;20401;-77
2022/11/12 12:53:21;;;;;;;105.20;41.65;;;8.90;99.90;;;;;;6185083;23;20013;-78
2022/11/12 12:55:57;;;;;;;101.35;40.83;;;8.90;99.90;;;;;;6184894;23;20048;-77
2022/11/12 12:58:28;;;;;;;98.88;41.47;;;8.80;99.90;;;;;;6185056;23;20087;-77
2022/11/12 13:01:22;;;;;;;109.30;42.90;;;8.90;99.90;;;;;;6184718;23;20021;-77
2022/11/12 13:04:07;;;;;;;104.47;40.97;;;9.00;99.90;;;;;;6164698;23;20024;-77
2022/11/12 13:06:51;;;;;;;102.60;40.67;;;8.90;99.90;;;;;;6184841;23;20075;-77
2022/11/12 13:09:17;;;;;;;96.90;41.00;;;9.00;99.90;;;;;;6158239;23;20017;-77
2022/11/12 13:14:36;;;;;;;108.82;42.10;;;9.00;99.90;;;;;;6157793;23;20104;-77